Bellview, Illinois
Current Conditions -  °F | °C
As of 2:54 PM on Thursday 23 Oct 2014 (Local Time) from KPIA Reporting Station
Broken Clouds Broken Clouds  
Wind Chill: 61°   Ceiling: 9500
Heat Index: 61°   Visibility: 10mi
Dew Point: 44°   Wind: 14mph
Humidity: 54%   Direction: 200°SSW
Pressure: 30.1"   Gusts: NA
Location:  40.7064°N, 89.6585°W
Report Text: KPIA 231954Z 20012KT 10SM BKN095 16/07 A3010 RMK AO2 SLP194 T01610067
Loading
Personal Weather Stations






























Interactive Weather Map New forecast layout! Learn more

10-Day Weather Forecast

Advertisements
Track Severe Weather on mobile